Time;durP1;ratioP1;P1;durP2;ratioP2;P2;SDS_P1;SDS_P2;PMS_P1;PMS_P2;Temp;Humidity;BMP_temperature;BMP_pressure;BME280_temperature;BME280_humidity;BME280_pressure;Samples;Min_cycle;Max_cycle;Signal;HPM_P1;HPM_P2
2023/08/03 00:00:24;;;;;;;1.10;0.30;;;15.80;99.90;;;;;;6245404;23;20016;-87
2023/08/03 00:02:51;;;;;;;2.42;0.25;;;15.80;99.90;;;;;;6218352;23;20020;-87
2023/08/03 00:05:19;;;;;;;0.20;0.10;;;15.80;99.90;;;;;;6245368;23;20012;-87
2023/08/03 00:07:48;;;;;;;0.90;0.30;;;15.80;99.90;;;;;;6218246;23;20347;-87
2023/08/03 00:10:14;;;;;;;1.55;0.40;;;15.70;99.90;;;;;;6245301;23;20095;-87
2023/08/03 00:12:40;;;;;;;0.50;0.20;;;15.80;99.90;;;;;;6244618;23;20073;-87
2023/08/03 00:15:07;;;;;;;0.57;0.20;;;16.00;99.90;;;;;;6245389;23;20020;-87
2023/08/03 00:17:33;;;;;;;2.80;0.28;;;15.70;99.90;;;;;;6244976;23;20019;-87
2023/08/03 00:20:00;;;;;;;2.53;0.20;;;15.80;99.90;;;;;;6217494;23;20020;-87
2023/08/03 00:22:26;;;;;;;0.35;0.10;;;15.80;99.90;;;;;;6218060;23;20090;-86
2023/08/03 00:24:52;;;;;;;0.75;0.22;;;15.80;99.90;;;;;;6245997;23;20050;-86
2023/08/03 00:27:17;;;;;;;0.40;0.20;;;15.80;99.90;;;;;;6219751;23;20023;-86
2023/08/03 00:29:43;;;;;;;2.88;0.30;;;15.80;99.90;;;;;;6246530;23;20024;-85
2023/08/03 00:32:09;;;;;;;1.00;0.20;;;16.00;99.90;;;;;;6219593;23;20059;-87
2023/08/03 00:34:35;;;;;;;1.33;0.20;;;15.80;99.90;;;;;;6219496;23;20091;-86
2023/08/03 00:37:00;;;;;;;0.60;0.10;;;15.90;99.90;;;;;;6246864;23;20016;-86
2023/08/03 00:39:27;;;;;;;0.85;0.20;;;15.90;99.90;;;;;;6194693;23;20016;-86
2023/08/03 00:41:53;;;;;;;1.40;0.20;;;15.80;99.90;;;;;;6219878;23;20343;-86
2023/08/03 00:44:19;;;;;;;3.30;0.20;;;15.90;99.90;;;;;;6220098;23;20055;-86
2023/08/03 00:46:45;;;;;;;0.00;0.00;;;16.00;99.90;;;;;;6246774;23;20462;-86
2023/08/03 00:49:10;;;;;;;0.30;0.20;;;16.00;99.90;;;;;;6246648;23;20016;-86
2023/08/03 00:51:36;;;;;;;0.10;0.10;;;15.90;99.90;;;;;;6219765;23;20016;-86
2023/08/03 00:54:06;;;;;;;0.20;0.10;;;16.00;99.90;;;;;;6219658;23;20435;-86
2023/08/03 00:56:35;;;;;;;0.50;0.20;;;15.90;99.90;;;;;;6219654;23;20016;-87
2023/08/03 00:59:02;;;;;;;0.52;0.20;;;15.90;99.90;;;;;;6219583;23;20506;-86
2023/08/03 01:01:28;;;;;;;0.20;0.15;;;15.90;99.90;;;;;;6246350;23;20016;-86
2023/08/03 01:03:54;;;;;;;0.10;0.10;;;15.90;99.90;;;;;;6246746;23;20082;-86
2023/08/03 01:06:23;;;;;;;0.35;0.10;;;16.00;99.90;;;;;;6219617;23;20111;-86
2023/08/03 01:08:49;;;;;;;1.25;0.20;;;15.90;99.90;;;;;;6219624;23;20012;-85
2023/08/03 01:11:15;;;;;;;1.90;0.15;;;16.00;99.90;;;;;;6219224;23;20074;-86
2023/08/03 01:13:41;;;;;;;0.30;0.20;;;16.00;99.90;;;;;;6246307;23;20023;-86
2023/08/03 01:16:10;;;;;;;0.70;0.10;;;16.20;99.90;;;;;;6219293;23;20052;-86
2023/08/03 01:18:37;;;;;;;1.17;0.10;;;16.00;99.90;;;;;;6219408;23;20020;-87
2023/08/03 01:21:06;;;;;;;0.30;0.20;;;16.00;99.90;;;;;;6219148;23;20054;-87
2023/08/03 01:23:33;;;;;;;1.70;0.55;;;15.90;99.90;;;;;;6246673;23;20016;-88
2023/08/03 01:25:58;;;;;;;0.45;0.10;;;16.10;99.90;;;;;;6246539;23;20091;-86
2023/08/03 01:28:24;;;;;;;1.83;0.17;;;16.00;99.90;;;;;;6218919;23;20051;-87
2023/08/03 01:30:50;;;;;;;0.90;0.10;;;16.00;99.90;;;;;;6219470;23;20077;-86
2023/08/03 01:33:15;;;;;;;0.65;0.38;;;16.00;99.90;;;;;;6246307;23;20442;-86
2023/08/03 01:35:42;;;;;;;2.80;0.20;;;15.90;99.90;;;;;;6219476;23;20059;-86
2023/08/03 01:38:07;;;;;;;0.90;0.10;;;16.00;99.90;;;;;;6246511;23;20016;-86
2023/08/03 01:40:33;;;;;;;0.10;0.10;;;16.00;99.90;;;;;;6219345;23;20020;-87
2023/08/03 01:42:59;;;;;;;0.30;0.20;;;15.90;99.90;;;;;;6218847;23;20042;-87
2023/08/03 01:45:24;;;;;;;0.43;0.20;;;16.30;99.90;;;;;;6246221;23;20027;-87
2023/08/03 01:47:50;;;;;;;0.38;0.20;;;15.90;99.90;;;;;;6246654;23;20016;-86
2023/08/03 01:50:16;;;;;;;1.70;0.20;;;16.10;99.90;;;;;;6246306;23;20022;-87
2023/08/03 01:52:41;;;;;;;0.22;0.20;;;15.90;99.90;;;;;;6194270;23;20076;-86
2023/08/03 01:55:07;;;;;;;0.57;0.20;;;16.00;99.90;;;;;;6219570;23;20020;-86
2023/08/03 01:57:33;;;;;;;0.38;0.10;;;15.90;99.90;;;;;;6194218;23;20162;-86
2023/08/03 01:59:59;;;;;;;2.83;0.20;;;15.90;99.90;;;;;;6219075;23;20019;-86
2023/08/03 02:02:24;;;;;;;0.57;0.20;;;15.90;99.90;;;;;;6219021;23;20054;-86
2023/08/03 02:04:50;;;;;;;0.32;0.20;;;15.90;99.90;;;;;;6219235;23;20451;-86
2023/08/03 02:07:18;;;;;;;1.15;0.10;;;15.90;99.90;;;;;;6219065;23;20023;-86
2023/08/03 02:09:44;;;;;;;1.67;0.20;;;16.30;99.90;;;;;;6245515;23;20028;-86
2023/08/03 02:12:09;;;;;;;5.63;0.20;;;15.90;99.90;;;;;;6193801;23;20043;-86
2023/08/03 02:14:35;;;;;;;0.25;0.20;;;15.90;99.90;;;;;;6246118;23;20027;-86
2023/08/03 02:17:01;;;;;;;0.25;0.10;;;15.90;99.90;;;;;;6245877;23;20129;-87
2023/08/03 02:19:27;;;;;;;1.63;0.28;;;16.00;99.90;;;;;;6193715;23;20026;-87
2023/08/03 02:21:52;;;;;;;1.65;0.20;;;15.90;99.90;;;;;;6218626;23;20024;-87
2023/08/03 02:24:18;;;;;;;0.20;0.20;;;15.90;99.90;;;;;;6218660;23;20020;-86
2023/08/03 02:26:44;;;;;;;0.55;0.20;;;15.90;99.90;;;;;;6218516;23;20048;-87
2023/08/03 02:29:10;;;;;;;0.10;0.10;;;15.90;99.90;;;;;;6218375;23;20345;-86
2023/08/03 02:31:36;;;;;;;0.30;0.10;;;15.90;99.90;;;;;;6218683;23;20020;-87
2023/08/03 02:34:01;;;;;;;2.10;0.20;;;15.90;99.90;;;;;;6218816;23;20031;-86
2023/08/03 02:36:27;;;;;;;0.85;0.20;;;16.00;99.90;;;;;;6219073;23;20027;-86
2023/08/03 02:38:53;;;;;;;1.08;0.20;;;16.00;99.90;;;;;;6245606;23;20095;-86
2023/08/03 02:41:18;;;;;;;1.20;0.20;;;16.00;99.90;;;;;;6245522;23;20015;-86
2023/08/03 02:43:44;;;;;;;3.40;0.20;;;16.00;99.90;;;;;;6245739;23;20058;-86
2023/08/03 02:46:10;;;;;;;1.25;0.20;;;16.00;99.90;;;;;;6245608;23;20035;-86
2023/08/03 02:48:35;;;;;;;0.60;0.20;;;16.00;99.90;;;;;;6218153;23;20020;-86
2023/08/03 02:51:01;;;;;;;1.15;0.20;;;16.00;99.90;;;;;;6218944;23;20020;-86
2023/08/03 02:53:27;;;;;;;0.47;0.10;;;16.00;99.90;;;;;;6245725;23;20008;-86
2023/08/03 02:55:52;;;;;;;0.32;0.20;;;16.00;99.90;;;;;;6193511;23;20012;-86
2023/08/03 02:58:18;;;;;;;0.20;0.20;;;16.00;99.90;;;;;;6218451;23;20020;-87
2023/08/03 03:00:44;;;;;;;0.30;0.20;;;16.00;99.90;;;;;;6244984;23;20012;-86
2023/08/03 03:03:10;;;;;;;0.98;0.22;;;16.00;99.90;;;;;;6218552;23;20086;-86
2023/08/03 03:05:35;;;;;;;0.22;0.20;;;15.90;99.90;;;;;;6218647;23;20044;-87
2023/08/03 03:08:01;;;;;;;0.52;0.20;;;16.00;99.90;;;;;;6218630;23;20043;-86
2023/08/03 03:10:27;;;;;;;1.23;0.10;;;16.00;99.90;;;;;;6218516;23;20024;-87
2023/08/03 03:12:52;;;;;;;0.47;0.20;;;16.00;99.90;;;;;;6245032;23;20016;-87
2023/08/03 03:15:18;;;;;;;4.82;0.20;;;16.00;99.90;;;;;;6218973;23;20074;-87
2023/08/03 03:17:44;;;;;;;0.13;0.10;;;16.00;99.90;;;;;;6218426;23;20087;-86
2023/08/03 03:20:10;;;;;;;0.17;0.15;;;16.00;99.90;;;;;;6218060;23;20395;-86
2023/08/03 03:22:36;;;;;;;0.20;0.10;;;16.00;99.90;;;;;;6218167;23;20019;-86
2023/08/03 03:25:05;;;;;;;0.95;0.80;;;16.00;99.90;;;;;;6218301;23;20048;-87
2023/08/03 03:27:31;;;;;;;0.30;0.10;;;16.10;99.90;;;;;;6218253;23;20062;-88
2023/08/03 03:29:57;;;;;;;0.57;0.20;;;16.00;99.90;;;;;;6218116;23;20020;-86
2023/08/03 03:32:22;;;;;;;0.95;0.20;;;16.00;99.90;;;;;;6218283;23;20012;-87
2023/08/03 03:34:48;;;;;;;0.20;0.10;;;16.00;99.90;;;;;;6244945;23;20020;-87
2023/08/03 03:37:14;;;;;;;2.35;0.40;;;16.00;99.90;;;;;;6245387;23;20020;-87
2023/08/03 03:39:40;;;;;;;1.40;0.10;;;16.10;99.90;;;;;;6245622;23;20016;-87
2023/08/03 03:42:05;;;;;;;0.32;0.20;;;16.10;99.90;;;;;;6218203;23;20095;-86
2023/08/03 03:44:32;;;;;;;1.20;0.20;;;16.00;99.90;;;;;;6245156;23;20046;-87
2023/08/03 03:46:59;;;;;;;0.20;0.20;;;16.00;99.90;;;;;;6245433;23;20016;-87
2023/08/03 03:49:24;;;;;;;0.63;0.17;;;16.00;99.90;;;;;;6218330;23;20355;-86
2023/08/03 03:51:50;;;;;;;1.45;0.20;;;16.00;99.90;;;;;;6245654;23;20012;-87
2023/08/03 03:54:16;;;;;;;1.70;0.30;;;16.00;99.90;;;;;;6245672;23;20113;-86
2023/08/03 03:56:41;;;;;;;0.47;0.30;;;16.10;99.90;;;;;;6193385;23;20102;-87
2023/08/03 03:59:07;;;;;;;0.20;0.20;;;16.10;99.90;;;;;;6194426;23;20339;-86
2023/08/03 04:01:33;;;;;;;0.30;0.20;;;16.00;99.90;;;;;;6220480;23;20164;-87
2023/08/03 04:03:58;;;;;;;0.60;0.30;;;16.10;99.90;;;;;;6220136;23;20051;-86
2023/08/03 04:06:24;;;;;;;0.35;0.20;;;16.10;99.90;;;;;;6247331;23;20335;-86
2023/08/03 04:08:49;;;;;;;0.55;0.20;;;16.10;99.90;;;;;;6219926;23;20012;-86
2023/08/03 04:11:15;;;;;;;0.50;0.30;;;16.10;99.90;;;;;;6247160;23;20016;-87
2023/08/03 04:13:41;;;;;;;0.80;0.38;;;16.10;99.90;;;;;;6207554;23;20024;-86
2023/08/03 04:16:06;;;;;;;0.30;0.30;;;16.10;99.90;;;;;;6247364;23;20451;-87
2023/08/03 04:18:32;;;;;;;1.33;0.30;;;16.00;99.90;;;;;;6246846;23;20050;-86
2023/08/03 04:20:58;;;;;;;0.88;0.47;;;16.00;99.90;;;;;;6219654;23;20027;-87
2023/08/03 04:23:23;;;;;;;0.45;0.38;;;16.10;99.90;;;;;;6247091;23;20044;-86
2023/08/03 04:25:49;;;;;;;2.03;0.60;;;16.10;99.90;;;;;;6220685;23;20016;-87
2023/08/03 04:28:15;;;;;;;0.70;0.50;;;16.10;99.90;;;;;;6220062;23;20018;-87
2023/08/03 04:30:40;;;;;;;0.30;0.30;;;16.10;99.90;;;;;;6219720;23;20027;-86
2023/08/03 04:33:06;;;;;;;1.88;0.20;;;16.10;99.90;;;;;;6219741;23;20376;-86
2023/08/03 04:35:32;;;;;;;6.50;0.60;;;16.10;99.90;;;;;;6195096;23;20019;-87
2023/08/03 04:37:57;;;;;;;0.65;0.40;;;16.10;99.90;;;;;;6219938;23;20047;-87
2023/08/03 04:40:23;;;;;;;1.27;0.20;;;15.60;99.90;;;;;;6247125;23;20346;-87
2023/08/03 04:42:49;;;;;;;0.73;0.50;;;16.10;99.90;;;;;;6246606;23;20346;-88
2023/08/03 04:45:15;;;;;;;0.20;0.20;;;16.20;99.90;;;;;;6220180;23;20016;-87
2023/08/03 04:47:40;;;;;;;1.83;0.50;;;16.20;99.90;;;;;;6194855;23;20362;-88
2023/08/03 04:50:06;;;;;;;0.30;0.20;;;16.20;99.90;;;;;;6220046;23;20114;-89
2023/08/03 04:52:32;;;;;;;1.15;0.30;;;16.20;99.90;;;;;;6247258;23;20018;-88
2023/08/03 04:54:58;;;;;;;1.00;0.32;;;16.30;99.90;;;;;;6220134;23;20406;-88
2023/08/03 04:57:23;;;;;;;1.00;0.40;;;16.30;99.90;;;;;;6247470;23;20331;-90
2023/08/03 04:59:49;;;;;;;0.60;0.30;;;16.30;99.90;;;;;;6220507;23;20024;-87
2023/08/03 05:02:15;;;;;;;0.43;0.30;;;16.40;99.90;;;;;;6246940;23;20107;-88
2023/08/03 05:04:41;;;;;;;0.30;0.30;;;16.30;99.90;;;;;;6219589;23;20020;-87
2023/08/03 05:07:07;;;;;;;1.05;0.40;;;16.30;99.90;;;;;;6219823;23;20097;-86
2023/08/03 05:09:32;;;;;;;1.40;0.38;;;16.30;99.90;;;;;;6219376;23;20020;-89
2023/08/03 05:11:58;;;;;;;2.22;0.40;;;16.30;99.90;;;;;;6244488;23;20383;-86
2023/08/03 05:14:24;;;;;;;0.45;0.30;;;16.30;99.90;;;;;;6218927;23;20082;-86
2023/08/03 05:16:49;;;;;;;0.30;0.30;;;16.30;99.90;;;;;;6246905;23;20020;-86
2023/08/03 05:19:15;;;;;;;1.98;0.10;;;16.30;99.90;;;;;;6194464;23;20016;-86
2023/08/03 05:21:41;;;;;;;0.20;0.20;;;16.20;99.90;;;;;;6246325;23;20051;-86
2023/08/03 05:24:06;;;;;;;0.90;0.32;;;16.20;99.90;;;;;;6218699;23;20016;-87
2023/08/03 05:26:33;;;;;;;0.45;0.20;;;16.20;99.90;;;;;;6219415;23;20386;-87
2023/08/03 05:28:59;;;;;;;1.38;0.60;;;16.30;99.90;;;;;;6219243;23;20058;-87
2023/08/03 05:31:26;;;;;;;0.85;0.38;;;16.30;99.90;;;;;;6246175;23;20020;-87
2023/08/03 05:33:53;;;;;;;0.75;0.60;;;16.30;99.90;;;;;;6245689;23;20345;-87
2023/08/03 05:36:19;;;;;;;1.20;0.40;;;16.30;99.90;;;;;;6219226;23;20019;-87
2023/08/03 05:38:45;;;;;;;1.98;0.65;;;16.30;99.90;;;;;;6244705;23;20063;-86
2023/08/03 05:41:15;;;;;;;1.33;0.82;;;16.40;99.90;;;;;;6245851;23;20017;-87
2023/08/03 05:43:41;;;;;;;0.73;0.30;;;16.40;99.90;;;;;;6194038;23;20017;-86
2023/08/03 05:46:12;;;;;;;0.95;0.40;;;16.30;99.90;;;;;;6219160;23;20060;-86
2023/08/03 05:48:38;;;;;;;0.60;0.60;;;16.30;99.90;;;;;;6245980;23;20087;-86
2023/08/03 05:51:04;;;;;;;0.77;0.60;;;16.40;99.90;;;;;;6194013;23;20340;-87
2023/08/03 05:53:32;;;;;;;1.30;0.50;;;16.40;99.90;;;;;;6219539;23;20020;-87
2023/08/03 05:55:58;;;;;;;0.55;0.45;;;16.30;99.90;;;;;;6219752;23;20060;-89
2023/08/03 05:58:24;;;;;;;1.05;0.30;;;16.40;99.90;;;;;;6221129;23;20023;-90
2023/08/03 06:00:50;;;;;;;0.40;0.40;;;16.40;99.90;;;;;;6219697;23;20016;-91
2023/08/03 06:03:18;;;;;;;1.55;0.28;;;16.50;99.90;;;;;;6219361;23;20054;-87
2023/08/03 06:05:46;;;;;;;0.40;0.30;;;16.60;99.90;;;;;;6219232;23;20023;-88
2023/08/03 06:08:25;;;;;;;2.60;0.68;;;16.70;99.90;;;;;;6219535;23;20012;-89
2023/08/03 06:10:53;;;;;;;0.40;0.40;;;16.80;99.90;;;;;;6244991;23;20018;-89
2023/08/03 06:13:24;;;;;;;0.98;0.40;;;16.90;99.90;;;;;;6219236;23;20016;-87
2023/08/03 06:15:50;;;;;;;0.40;0.30;;;17.10;99.90;;;;;;6193690;23;20028;-88
2023/08/03 06:18:18;;;;;;;0.20;0.20;;;17.00;99.90;;;;;;6244820;23;20534;-88
2023/08/03 06:20:46;;;;;;;0.68;0.30;;;17.10;99.90;;;;;;6219129;23;20023;-87
2023/08/03 06:23:23;;;;;;;0.80;0.30;;;17.20;99.90;;;;;;6219366;23;20023;-89
2023/08/03 06:25:51;;;;;;;0.85;0.50;;;17.30;99.90;;;;;;6246573;23;20018;-88
2023/08/03 06:28:19;;;;;;;0.50;0.38;;;17.30;99.90;;;;;;6219093;23;20016;-88
2023/08/03 06:30:46;;;;;;;1.45;0.50;;;17.40;99.90;;;;;;6245975;23;20012;-87
2023/08/03 06:33:17;;;;;;;0.88;0.40;;;17.40;99.90;;;;;;6219209;23;20012;-88
2023/08/03 06:35:45;;;;;;;5.15;0.57;;;17.40;99.90;;;;;;6218996;23;20466;-87
2023/08/03 06:38:13;;;;;;;3.70;0.45;;;17.50;99.90;;;;;;6219135;23;20016;-87
2023/08/03 06:40:41;;;;;;;0.30;0.30;;;17.60;99.90;;;;;;6219019;23;20027;-86
2023/08/03 06:43:08;;;;;;;3.13;0.50;;;17.80;99.90;;;;;;6218787;23;20390;-87
2023/08/03 06:45:33;;;;;;;0.63;0.50;;;17.80;99.90;;;;;;6218977;23;20393;-87
2023/08/03 06:48:00;;;;;;;2.53;0.32;;;17.80;99.90;;;;;;6218694;23;20016;-87
2023/08/03 06:50:28;;;;;;;1.85;0.30;;;17.90;99.90;;;;;;6245148;23;20020;-86
2023/08/03 06:52:54;;;;;;;2.35;0.30;;;17.80;99.90;;;;;;6244829;23;20055;-87
2023/08/03 06:55:19;;;;;;;1.10;0.77;;;17.80;99.90;;;;;;6219398;23;20047;-87
2023/08/03 06:57:45;;;;;;;0.50;0.30;;;17.80;99.90;;;;;;6218665;23;20023;-86
2023/08/03 07:00:12;;;;;;;0.40;0.20;;;17.90;99.90;;;;;;6245784;23;20419;-85
2023/08/03 07:02:38;;;;;;;0.30;0.30;;;17.90;99.90;;;;;;6218354;23;20009;-86
2023/08/03 07:05:05;;;;;;;0.65;0.30;;;18.10;99.90;;;;;;6218920;23;20020;-84
2023/08/03 07:07:31;;;;;;;0.80;0.40;;;18.20;99.90;;;;;;6245430;23;20028;-88
2023/08/03 07:09:59;;;;;;;0.50;0.25;;;18.40;99.90;;;;;;6218316;23;20054;-87
2023/08/03 07:12:26;;;;;;;0.28;0.28;;;18.50;99.90;;;;;;6219026;23;20008;-87
2023/08/03 07:14:52;;;;;;;0.77;0.30;;;18.60;99.90;;;;;;6245110;23;20027;-84
2023/08/03 07:17:17;;;;;;;1.42;0.30;;;18.60;99.90;;;;;;6245551;23;20009;-87
2023/08/03 07:19:43;;;;;;;1.35;0.25;;;18.70;99.90;;;;;;6245206;23;20497;-86
2023/08/03 07:22:09;;;;;;;0.10;0.10;;;18.70;99.90;;;;;;6218204;23;20070;-87
2023/08/03 07:24:36;;;;;;;1.05;0.20;;;18.80;99.90;;;;;;6218361;23;20016;-87
2023/08/03 07:27:02;;;;;;;0.57;0.10;;;18.80;99.90;;;;;;6218328;23;20012;-87
2023/08/03 07:29:28;;;;;;;2.90;0.30;;;19.00;99.90;;;;;;6218866;23;20089;-87
2023/08/03 07:31:54;;;;;;;2.35;0.15;;;19.00;99.90;;;;;;6218899;23;20428;-87
2023/08/03 07:34:20;;;;;;;1.15;0.20;;;19.00;99.90;;;;;;6246949;23;20095;-87
2023/08/03 07:36:46;;;;;;;1.15;0.20;;;18.90;99.90;;;;;;6220505;23;20047;-87
2023/08/03 07:39:12;;;;;;;1.50;0.30;;;18.80;99.90;;;;;;6195428;23;20016;-87
2023/08/03 07:41:38;;;;;;;2.25;0.28;;;18.90;99.90;;;;;;6220336;23;20394;-87
2023/08/03 07:44:04;;;;;;;1.55;0.20;;;19.00;99.90;;;;;;6247467;23;20016;-87
2023/08/03 07:46:30;;;;;;;2.15;0.20;;;19.10;99.90;;;;;;6220388;23;20019;-87
2023/08/03 07:48:56;;;;;;;1.35;0.25;;;19.30;99.90;;;;;;6220251;23;20016;-87
2023/08/03 07:51:23;;;;;;;0.63;0.20;;;19.40;99.90;;;;;;6220824;23;20027;-87
2023/08/03 07:53:49;;;;;;;1.60;0.32;;;19.60;99.90;;;;;;6247790;23;20016;-87
2023/08/03 07:56:15;;;;;;;3.17;1.10;;;19.60;99.90;;;;;;6247662;23;20390;-87
2023/08/03 07:58:41;;;;;;;1.73;0.30;;;19.80;99.90;;;;;;6220162;23;20022;-87
2023/08/03 08:01:10;;;;;;;1.38;0.20;;;20.00;99.90;;;;;;6247196;23;20048;-87
2023/08/03 08:03:38;;;;;;;2.47;0.40;;;20.10;99.90;;;;;;6195089;23;20023;-87
2023/08/03 08:06:12;;;;;;;0.50;0.20;;;20.20;99.90;;;;;;6220194;23;20149;-87
2023/08/03 08:08:37;;;;;;;0.45;0.13;;;20.30;99.90;;;;;;6220467;23;20020;-88
2023/08/03 08:11:04;;;;;;;2.78;0.32;;;20.50;99.90;;;;;;6247062;23;20022;-87
2023/08/03 08:13:30;;;;;;;0.35;0.30;;;20.60;99.90;;;;;;6220015;23;20016;-87
2023/08/03 08:16:00;;;;;;;0.65;0.20;;;20.60;99.90;;;;;;6219868;23;20012;-87
2023/08/03 08:18:27;;;;;;;0.85;0.30;;;20.60;99.90;;;;;;6219793;23;20355;-87
2023/08/03 08:21:03;;;;;;;0.90;0.20;;;20.70;99.90;;;;;;6246771;23;20039;-87
2023/08/03 08:23:28;;;;;;;4.50;0.50;;;21.00;99.90;;;;;;6219834;23;20385;-87
2023/08/03 08:25:54;;;;;;;1.30;0.40;;;21.30;99.90;;;;;;6219790;23;20095;-87
2023/08/03 08:28:21;;;;;;;1.38;0.30;;;21.20;99.90;;;;;;6247149;23;20074;-87
2023/08/03 08:30:47;;;;;;;2.47;0.20;;;21.00;99.90;;;;;;6247214;23;20398;-87
2023/08/03 08:33:19;;;;;;;1.95;0.73;;;21.10;99.90;;;;;;6246951;23;20052;-87
2023/08/03 08:35:46;;;;;;;2.78;0.32;;;21.30;99.90;;;;;;6246623;23;20391;-87
2023/08/03 08:38:12;;;;;;;3.17;0.40;;;21.30;99.90;;;;;;6194697;23;20027;-87
2023/08/03 08:40:39;;;;;;;1.83;0.30;;;21.40;99.90;;;;;;6219976;23;20343;-87
2023/08/03 08:43:06;;;;;;;2.90;0.30;;;21.70;99.90;;;;;;6219463;23;20020;-87
2023/08/03 08:45:32;;;;;;;4.75;0.30;;;22.00;99.90;;;;;;6219024;23;20018;-87
2023/08/03 08:47:58;;;;;;;2.72;0.40;;;22.10;99.90;;;;;;6220137;23;20016;-87
2023/08/03 08:50:24;;;;;;;2.85;0.30;;;22.00;99.90;;;;;;6219581;23;20020;-86
2023/08/03 08:52:51;;;;;;;3.78;0.60;;;22.00;99.90;;;;;;6246896;23;20023;-86
2023/08/03 08:55:23;;;;;;;1.25;0.30;;;21.70;99.90;;;;;;6219894;23;20012;-87
2023/08/03 08:57:50;;;;;;;4.95;0.75;;;21.50;99.90;;;;;;6220225;23;20012;-86
2023/08/03 09:00:16;;;;;;;3.10;0.40;;;21.30;99.90;;;;;;6194454;23;20013;-87
2023/08/03 09:02:42;;;;;;;3.30;0.38;;;21.20;99.90;;;;;;6194923;23;20016;-87
2023/08/03 09:05:14;;;;;;;2.53;0.40;;;21.40;99.90;;;;;;6219857;23;20012;-85
2023/08/03 09:07:40;;;;;;;1.25;0.38;;;21.40;99.90;;;;;;6246606;23;20031;-87
2023/08/03 09:10:07;;;;;;;6.95;0.60;;;21.60;99.90;;;;;;6219659;23;20023;-87
2023/08/03 09:12:33;;;;;;;3.03;0.40;;;21.70;99.90;;;;;;6219359;23;20343;-87
2023/08/03 09:14:59;;;;;;;1.35;0.30;;;21.60;99.90;;;;;;6218985;23;20020;-84
2023/08/03 09:17:26;;;;;;;4.20;0.60;;;21.50;99.90;;;;;;6246687;23;20312;-87
2023/08/03 09:19:52;;;;;;;4.82;0.50;;;21.70;99.90;;;;;;6246313;23;20439;-87
2023/08/03 09:22:19;;;;;;;2.58;0.50;;;21.90;99.90;;;;;;6219786;23;20455;-86
2023/08/03 09:24:47;;;;;;;6.57;0.60;;;22.00;99.90;;;;;;6219649;23;20012;-87
2023/08/03 09:27:19;;;;;;;2.03;0.55;;;22.00;99.90;;;;;;6246554;23;20069;-87
2023/08/03 09:29:44;;;;;;;0.80;0.50;;;21.90;99.90;;;;;;6219347;23;20102;-87
2023/08/03 09:32:12;;;;;;;2.13;0.50;;;21.90;99.90;;;;;;6246373;23;20042;-87
2023/08/03 09:34:39;;;;;;;3.55;0.50;;;22.20;99.90;;;;;;6219883;23;20039;-87
2023/08/03 09:37:06;;;;;;;2.97;0.65;;;22.40;99.90;;;;;;6194453;23;20027;-87
2023/08/03 09:39:38;;;;;;;2.88;0.40;;;22.40;99.90;;;;;;6246224;23;20016;-87
2023/08/03 09:42:11;;;;;;;3.70;0.50;;;22.40;99.90;;;;;;6245876;23;20020;-86
2023/08/03 09:44:38;;;;;;;2.30;0.30;;;22.30;99.90;;;;;;6194429;23;20016;-86
2023/08/03 09:47:05;;;;;;;1.60;0.30;;;22.30;99.90;;;;;;6246400;23;20020;-85
2023/08/03 09:49:32;;;;;;;1.65;0.50;;;22.40;99.90;;;;;;6218909;23;20383;-84
2023/08/03 09:52:04;;;;;;;4.18;0.50;;;22.70;99.90;;;;;;6247866;23;20016;-86
2023/08/03 09:54:39;;;;;;;4.25;0.93;;;22.90;99.90;;;;;;6197333;23;20142;-85
2023/08/03 09:57:09;;;;;;;3.67;0.50;;;22.90;99.90;;;;;;6247997;23;20016;-87
2023/08/03 09:59:37;;;;;;;6.75;0.63;;;22.60;99.90;;;;;;6219655;23;20067;-86
2023/08/03 10:02:09;;;;;;;2.35;0.60;;;22.50;99.90;;;;;;6219186;23;20066;-86
2023/08/03 10:04:41;;;;;;;4.03;0.57;;;22.50;99.90;;;;;;6219455;23;20051;-87
2023/08/03 10:07:10;;;;;;;2.95;0.50;;;22.70;99.90;;;;;;6219589;23;20051;-86
2023/08/03 10:09:48;;;;;;;2.63;0.40;;;23.00;99.90;;;;;;6194287;23;20020;-85
2023/08/03 10:12:22;;;;;;;4.97;0.60;;;23.10;99.90;;;;;;6220081;23;20023;-87
2023/08/03 10:14:51;;;;;;;4.10;0.50;;;23.20;99.90;;;;;;6247285;23;20386;-86
2023/08/03 10:17:18;;;;;;;6.03;0.63;;;23.00;99.90;;;;;;6247946;23;20020;-84
2023/08/03 10:19:44;;;;;;;6.60;1.02;;;22.80;99.90;;;;;;6222345;23;20019;-85
2023/08/03 10:22:10;;;;;;;2.90;0.50;;;22.20;99.90;;;;;;6220637;23;20090;-85
2023/08/03 10:24:36;;;;;;;5.20;0.70;;;22.10;99.90;;;;;;6248153;23;20020;-85
2023/08/03 10:27:19;;;;;;;2.03;0.57;;;21.90;99.90;;;;;;6248122;23;20004;-84
2023/08/03 10:29:57;;;;;;;2.40;0.50;;;21.70;99.90;;;;;;6223987;23;20407;-88
2023/08/03 10:32:28;;;;;;;2.15;0.60;;;21.80;99.90;;;;;;6222987;23;20027;-86
2023/08/03 10:34:59;;;;;;;7.18;0.70;;;22.00;99.90;;;;;;6197071;23;20026;-84
2023/08/03 10:37:25;;;;;;;3.63;0.60;;;22.20;99.90;;;;;;6248730;23;20015;-85
2023/08/03 10:40:01;;;;;;;3.75;0.55;;;22.20;99.90;;;;;;6220947;23;20059;-87
2023/08/03 10:42:31;;;;;;;;;;;22.30;99.90;;;;;;6220343;23;20020;-85
2023/08/03 10:45:22;;;;;;;3.08;0.50;;;22.00;99.90;;;;;;6220883;23;19915;-84
2023/08/03 10:47:48;;;;;;;3.55;0.60;;;22.00;99.90;;;;;;6219698;23;20024;-83
2023/08/03 10:50:14;;;;;;;4.72;0.50;;;22.00;99.90;;;;;;6219391;23;20020;-85
2023/08/03 10:52:40;;;;;;;3.92;0.80;;;22.00;99.90;;;;;;6219143;23;20043;-85
2023/08/03 10:55:26;;;;;;;3.38;0.45;;;22.00;99.90;;;;;;6245856;23;20026;-85
2023/08/03 10:57:53;;;;;;;3.33;0.60;;;22.00;99.90;;;;;;6219011;23;20019;-86
2023/08/03 11:00:18;;;;;;;3.60;0.50;;;22.10;99.90;;;;;;6193532;23;20391;-85
2023/08/03 11:02:44;;;;;;;5.82;0.60;;;22.30;99.90;;;;;;6218996;23;20023;-86
2023/08/03 11:05:11;;;;;;;3.13;0.50;;;22.50;99.90;;;;;;6193378;23;20054;-83
2023/08/03 11:07:41;;;;;;;1.20;0.30;;;22.40;99.90;;;;;;6217124;23;20035;-85
2023/08/03 11:10:12;;;;;;;3.58;0.60;;;22.20;99.90;;;;;;6217703;23;20477;-84
2023/08/03 11:12:40;;;;;;;1.48;0.40;;;22.40;99.90;;;;;;6244890;23;20335;-83
2023/08/03 11:15:07;;;;;;;2.83;0.40;;;22.50;99.90;;;;;;6219014;23;20034;-83
2023/08/03 11:17:35;;;;;;;5.03;0.30;;;22.60;99.90;;;;;;6247528;23;20534;-84
2023/08/03 11:20:06;;;;;;;1.75;0.40;;;22.70;99.90;;;;;;6245410;23;20012;-83
2023/08/03 11:22:32;;;;;;;3.28;0.40;;;22.80;99.90;;;;;;6245662;23;20154;-83
2023/08/03 11:25:00;;;;;;;0.73;0.20;;;22.80;99.90;;;;;;6245432;23;20009;-83
2023/08/03 11:27:26;;;;;;;1.58;0.47;;;22.90;99.90;;;;;;6218934;23;20020;-82
2023/08/03 11:29:53;;;;;;;1.10;0.30;;;23.10;99.90;;;;;;6244742;23;20359;-85
2023/08/03 11:32:29;;;;;;;1.00;0.20;;;23.10;99.90;;;;;;6245578;23;20024;-84
2023/08/03 11:35:04;;;;;;;2.92;0.25;;;23.50;99.90;;;;;;6245458;23;20020;-83
2023/08/03 11:37:31;;;;;;;0.43;0.10;;;23.50;99.90;;;;;;6245396;23;20507;-83
2023/08/03 11:39:57;;;;;;;2.38;0.20;;;23.70;99.90;;;;;;6245532;23;20013;-83
2023/08/03 11:42:23;;;;;;;1.70;0.20;;;23.80;99.90;;;;;;6218171;23;20012;-84
2023/08/03 11:44:49;;;;;;;1.08;0.20;;;23.90;99.90;;;;;;6245524;23;20331;-84
2023/08/03 11:47:15;;;;;;;0.88;0.30;;;24.10;99.90;;;;;;6245514;23;20016;-83
2023/08/03 11:49:40;;;;;;;1.75;0.20;;;24.30;99.90;;;;;;6245235;23;20062;-85
2023/08/03 11:52:06;;;;;;;1.67;0.35;;;24.50;99.90;;;;;;6216129;23;20020;-85
2023/08/03 11:54:34;;;;;;;1.70;0.30;;;24.30;99.90;;;;;;6218436;23;20023;-84
2023/08/03 11:59:47;;;;;;;2.85;0.30;;;24.20;99.90;;;;;;6244772;23;20013;-85
2023/08/03 12:02:13;;;;;;;0.88;0.30;;;24.20;99.90;;;;;;6245088;23;20016;-84
2023/08/03 12:04:39;;;;;;;1.38;0.40;;;24.30;99.90;;;;;;6218311;23;20466;-85
2023/08/03 12:07:06;;;;;;;2.50;0.35;;;24.60;99.90;;;;;;6218234;23;20347;-84
2023/08/03 12:09:37;;;;;;;5.22;0.47;;;24.30;99.90;;;;;;6218030;23;20337;-84
2023/08/03 12:12:04;;;;;;;3.08;0.50;;;24.50;99.90;;;;;;6244957;23;20052;-83
2023/08/03 12:14:30;;;;;;;3.10;0.40;;;24.60;99.90;;;;;;6245078;23;20054;-84
2023/08/03 12:16:56;;;;;;;3.45;0.60;;;24.30;99.90;;;;;;6245425;23;20374;-83
2023/08/03 12:19:22;;;;;;;3.88;0.50;;;24.10;99.90;;;;;;6218690;23;20071;-84
2023/08/03 12:21:47;;;;;;;2.95;0.30;;;23.60;99.90;;;;;;6247275;23;20023;-84
2023/08/03 12:24:13;;;;;;;2.25;0.40;;;23.20;99.90;;;;;;6247165;23;20016;-85
2023/08/03 12:26:42;;;;;;;2.95;0.32;;;23.10;99.90;;;;;;6219826;23;20047;-84
2023/08/03 12:29:08;;;;;;;2.35;0.30;;;22.80;99.90;;;;;;6246812;23;20012;-84
2023/08/03 12:31:34;;;;;;;1.27;0.20;;;22.60;99.90;;;;;;6219915;23;20032;-84
2023/08/03 12:33:59;;;;;;;3.90;0.40;;;22.60;99.90;;;;;;6247019;23;20023;-85
2023/08/03 12:36:26;;;;;;;1.25;0.25;;;22.40;99.90;;;;;;6246731;23;20023;-84
2023/08/03 12:38:52;;;;;;;1.75;0.32;;;22.40;99.90;;;;;;6219931;23;20043;-85
2023/08/03 12:41:19;;;;;;;13.52;0.95;;;22.30;99.90;;;;;;6194648;23;20074;-85
2023/08/03 12:43:46;;;;;;;3.58;0.40;;;22.50;99.90;;;;;;6246638;23;20027;-83
2023/08/03 12:46:11;;;;;;;0.88;0.35;;;22.40;99.90;;;;;;6195224;23;20012;-84
2023/08/03 12:48:37;;;;;;;7.07;0.45;;;22.40;99.90;;;;;;6246873;23;20039;-84